createdAt,value
2022-08-08T00:02:53.132Z,12.40
2022-08-08T00:07:09.274Z,12.40
2022-08-08T00:11:46.615Z,12.30
2022-08-08T00:16:07.247Z,12.20
2022-08-08T00:20:14.463Z,12.20
2022-08-08T00:24:30.956Z,12.20
2022-08-08T00:28:46.587Z,12.10
2022-08-08T00:32:48.273Z,12.00
2022-08-08T00:37:03.935Z,12.00
2022-08-08T00:42:09.556Z,12.00
2022-08-08T00:46:27.034Z,12.00
2022-08-08T00:50:53.315Z,11.90
2022-08-08T00:55:52.457Z,11.90
2022-08-08T01:00:23.994Z,11.80
2022-08-08T01:04:42.036Z,11.80
2022-08-08T01:09:34.892Z,11.70
2022-08-08T01:14:54.091Z,11.60
2022-08-08T01:19:02.650Z,11.60
2022-08-08T01:24:02.743Z,11.60
2022-08-08T01:28:51.353Z,11.50
2022-08-08T01:33:16.413Z,11.50
2022-08-08T01:37:56.965Z,11.40
2022-08-08T01:42:35.490Z,11.30
2022-08-08T01:48:14.692Z,11.30
2022-08-08T01:52:41.203Z,11.30
2022-08-08T01:56:37.852Z,11.30
2022-08-08T02:01:04.828Z,11.20
2022-08-08T02:05:56.645Z,11.20
2022-08-08T02:10:29.456Z,11.20
2022-08-08T02:14:55.240Z,11.20
2022-08-08T02:19:57.923Z,11.20
2022-08-08T02:23:47.375Z,11.10
2022-08-08T02:28:08.303Z,11.00
2022-08-08T02:32:35.925Z,11.00
2022-08-08T02:36:46.405Z,11.00
2022-08-08T02:41:59.230Z,11.00
2022-08-08T02:46:26.953Z,10.90
2022-08-08T02:50:55.619Z,10.90
2022-08-08T02:55:19.879Z,10.80
2022-08-08T02:59:57.868Z,10.80
2022-08-08T03:05:02.646Z,10.80
2022-08-08T03:08:57.227Z,10.70
2022-08-08T03:16:01.861Z,10.70
2022-08-08T03:18:31.449Z,10.70
2022-08-08T03:22:38.652Z,10.70
2022-08-08T03:27:07.941Z,10.60
2022-08-08T03:31:30.467Z,10.50
2022-08-08T03:35:51.559Z,10.50
2022-08-08T03:40:00.482Z,10.50
2022-08-08T03:44:04.379Z,10.40
2022-08-08T03:48:09.993Z,10.40
2022-08-08T03:52:24.368Z,10.40
2022-08-08T03:56:33.166Z,10.50
2022-08-08T04:00:36.219Z,10.40
2022-08-08T04:05:10.393Z,10.40
2022-08-08T04:09:16.724Z,10.40
2022-08-08T04:13:22.874Z,10.30
2022-08-08T04:17:46.229Z,10.30
2022-08-08T04:21:47.003Z,10.30
2022-08-08T04:25:50.203Z,10.40
2022-08-08T04:30:00.918Z,10.40
2022-08-08T04:34:13.679Z,10.40
2022-08-08T04:38:21.819Z,10.40
2022-08-08T04:42:25.876Z,10.40
2022-08-08T04:46:27.658Z,10.50
2022-08-08T04:50:38.516Z,10.60
2022-08-08T04:54:42.489Z,10.60
2022-08-08T04:58:46.249Z,10.80
2022-08-08T05:02:53.062Z,11.20
2022-08-08T05:11:02.084Z,11.40
2022-08-08T05:15:04.469Z,11.30
2022-08-08T05:20:11.232Z,11.40
2022-08-08T05:23:49.571Z,11.50
2022-08-08T05:28:06.019Z,11.60
2022-08-08T05:32:09.573Z,11.70
2022-08-08T05:36:25.245Z,11.80
2022-08-08T05:40:29.621Z,12.00
2022-08-08T05:44:40.571Z,12.20
2022-08-08T05:48:43.626Z,12.30
2022-08-08T05:52:53.975Z,12.50
2022-08-08T05:56:56.522Z,12.70
2022-08-08T06:01:01.622Z,13.00
2022-08-08T06:05:33.688Z,13.20
2022-08-08T06:09:58.099Z,13.40
2022-08-08T06:14:06.072Z,13.60
2022-08-08T06:18:21.963Z,13.80
2022-08-08T06:22:42.214Z,14.00
2022-08-08T06:26:52.443Z,14.30
2022-08-08T06:30:56.451Z,14.50
2022-08-08T06:36:04.621Z,14.70
2022-08-08T06:39:34.006Z,15.00
2022-08-08T06:43:37.526Z,15.20
2022-08-08T06:47:52.657Z,15.40
2022-08-08T06:52:01.961Z,15.70
2022-08-08T06:56:03.846Z,15.90
2022-08-08T07:00:12.134Z,16.10
2022-08-08T07:04:45.418Z,16.20
2022-08-08T07:09:04.043Z,16.40
2022-08-08T07:13:07.949Z,16.60
2022-08-08T07:17:20.175Z,16.70
2022-08-08T07:21:31.087Z,16.80
2022-08-08T07:25:38.886Z,17.00
2022-08-08T07:30:02.633Z,17.10
2022-08-08T07:34:26.740Z,17.20
2022-08-08T07:38:53.392Z,17.40
2022-08-08T07:42:56.459Z,17.60
2022-08-08T07:46:58.328Z,17.80
2022-08-08T07:51:00.957Z,18.00
2022-08-08T07:55:06.400Z,18.20
2022-08-08T07:59:14.921Z,18.40
2022-08-08T08:03:41.425Z,18.40
2022-08-08T08:08:02.401Z,18.60
2022-08-08T08:12:06.017Z,18.70
2022-08-08T08:16:18.620Z,18.80
2022-08-08T08:20:30.357Z,19.00
2022-08-08T08:24:35.153Z,19.30
2022-08-08T08:28:56.759Z,19.60
2022-08-08T08:32:59.220Z,19.80
2022-08-08T08:37:20.991Z,19.90
2022-08-08T08:41:24.210Z,20.30
2022-08-08T08:45:27.191Z,20.60
2022-08-08T08:49:34.062Z,21.60
2022-08-08T08:53:56.562Z,22.30
2022-08-08T08:58:05.179Z,23.00
2022-08-08T09:02:21.287Z,24.10
2022-08-08T09:06:34.235Z,25.20
2022-08-08T09:10:39.568Z,25.50
2022-08-08T09:14:45.230Z,25.70
2022-08-08T09:18:49.758Z,26.20
2022-08-08T09:27:20.256Z,26.80
2022-08-08T09:31:57.101Z,26.60
2022-08-08T09:36:01.205Z,26.70
2022-08-08T09:40:10.848Z,27.00
2022-08-08T09:44:29.898Z,27.30
2022-08-08T09:48:42.350Z,27.20
2022-08-08T09:52:55.919Z,27.40
2022-08-08T09:57:03.565Z,27.40
2022-08-08T10:01:15.035Z,27.30
2022-08-08T10:05:25.619Z,27.50
2022-08-08T10:09:58.612Z,27.60
2022-08-08T10:13:59.419Z,28.20
2022-08-08T10:18:10.183Z,28.20
2022-08-08T10:22:19.575Z,28.20
2022-08-08T10:26:52.208Z,28.30
2022-08-08T10:31:01.226Z,28.10
2022-08-08T10:36:01.879Z,28.40
2022-08-08T10:39:54.561Z,28.20
2022-08-08T10:43:59.176Z,27.80
2022-08-08T10:48:01.004Z,27.70
2022-08-08T10:52:03.151Z,27.50
2022-08-08T10:56:05.262Z,27.70
2022-08-08T11:00:12.267Z,27.70
2022-08-08T11:04:14.517Z,27.70
2022-08-08T11:08:37.756Z,27.60
2022-08-08T11:13:28.219Z,27.40
2022-08-08T11:17:59.849Z,27.40
2022-08-08T11:21:53.996Z,27.50
2022-08-08T11:25:58.835Z,27.40
2022-08-08T11:30:19.926Z,27.20
2022-08-08T11:34:31.652Z,27.20
2022-08-08T11:38:54.016Z,27.20
2022-08-08T11:42:58.210Z,27.30
2022-08-08T11:47:00.204Z,27.10
2022-08-08T11:51:30.814Z,27.20
2022-08-08T11:55:28.644Z,27.10
2022-08-08T12:00:00.291Z,27.00
2022-08-08T12:03:59.610Z,27.20
2022-08-08T12:08:02.154Z,27.50
2022-08-08T12:12:07.073Z,27.20
2022-08-08T12:16:20.384Z,26.90
2022-08-08T12:20:39.983Z,27.10
2022-08-08T12:24:54.282Z,26.90
2022-08-08T12:28:58.444Z,27.00
2022-08-08T12:33:01.814Z,26.90
2022-08-08T12:37:20.816Z,27.10
2022-08-08T12:41:35.044Z,26.80
2022-08-08T12:45:57.854Z,27.10
2022-08-08T12:50:02.337Z,27.10
2022-08-08T12:54:04.704Z,27.00
2022-08-08T12:58:28.127Z,27.30
2022-08-08T13:02:34.473Z,27.30
2022-08-08T13:06:37.853Z,26.50
2022-08-08T13:10:57.300Z,26.60
2022-08-08T13:15:06.069Z,26.70
2022-08-08T13:19:13.945Z,27.00
2022-08-08T13:23:36.612Z,26.80
2022-08-08T13:27:39.076Z,26.90
2022-08-08T13:31:51.074Z,26.90
2022-08-08T13:35:55.344Z,27.00
2022-08-08T13:40:02.636Z,26.90
2022-08-08T13:44:07.266Z,27.00
2022-08-08T13:48:25.829Z,27.20
2022-08-08T13:52:37.879Z,27.10
2022-08-08T13:56:53.640Z,26.70
2022-08-08T14:01:13.598Z,26.60
2022-08-08T14:05:22.227Z,26.70
2022-08-08T14:10:05.498Z,27.00
2022-08-08T14:14:00.472Z,27.20
2022-08-08T14:18:34.511Z,26.80
2022-08-08T14:22:29.768Z,26.50
2022-08-08T14:26:33.171Z,26.70
2022-08-08T14:30:35.275Z,26.70
2022-08-08T14:34:37.492Z,26.60
2022-08-08T14:38:51.751Z,26.50
2022-08-08T14:42:59.624Z,26.60
2022-08-08T14:47:20.869Z,27.00
2022-08-08T14:51:25.354Z,27.00
2022-08-08T14:55:41.800Z,26.80
2022-08-08T14:59:51.241Z,26.70
2022-08-08T15:04:08.478Z,26.30
2022-08-08T15:08:21.755Z,26.50
2022-08-08T15:12:32.609Z,26.20
2022-08-08T15:16:35.044Z,26.30
2022-08-08T15:20:36.953Z,26.30
2022-08-08T15:24:39.555Z,26.20
2022-08-08T15:28:41.215Z,26.10
2022-08-08T15:32:43.340Z,25.90
2022-08-08T15:36:47.331Z,25.70
2022-08-08T15:40:49.059Z,25.60
2022-08-08T15:44:50.995Z,25.70
2022-08-08T15:48:52.924Z,25.70
2022-08-08T15:52:54.668Z,25.40
2022-08-08T15:56:57.661Z,25.30
2022-08-08T16:00:59.497Z,25.00
2022-08-08T16:05:01.952Z,25.00
2022-08-08T16:13:11.080Z,25.10
2022-08-08T16:13:31.005Z,24.90
2022-08-08T16:18:06.567Z,25.00
2022-08-08T16:22:06.695Z,25.00
2022-08-08T16:26:13.168Z,24.80
2022-08-08T16:30:32.355Z,24.80
2022-08-08T16:34:38.286Z,24.70
2022-08-08T16:38:47.197Z,24.60
2022-08-08T16:42:55.610Z,24.50
2022-08-08T16:46:57.454Z,24.30
2022-08-08T16:51:00.394Z,24.20
2022-08-08T16:55:33.795Z,24.20
2022-08-08T16:59:23.979Z,24.20
2022-08-08T17:03:58.972Z,24.10
2022-08-08T17:08:01.340Z,24.20
2022-08-08T17:12:03.760Z,24.10
2022-08-08T17:16:05.622Z,24.10
2022-08-08T17:20:18.158Z,24.00
2022-08-08T17:24:27.888Z,24.00
2022-08-08T17:28:35.122Z,23.90
2022-08-08T17:32:58.270Z,23.90
2022-08-08T17:37:03.204Z,23.80
2022-08-08T17:41:05.934Z,23.80
2022-08-08T17:45:14.259Z,23.60
2022-08-08T17:49:42.499Z,23.50
2022-08-08T17:53:45.724Z,23.50
2022-08-08T17:57:59.432Z,23.50
2022-08-08T18:02:04.451Z,23.40
2022-08-08T18:06:22.117Z,23.30
2022-08-08T18:10:35.181Z,23.10
2022-08-08T18:14:37.743Z,23.00
2022-08-08T18:18:45.509Z,23.00
2022-08-08T18:22:55.001Z,22.90
2022-08-08T18:26:58.779Z,22.80
2022-08-08T18:31:00.514Z,22.60
2022-08-08T18:35:09.952Z,22.50
2022-08-08T18:39:28.188Z,22.40
2022-08-08T18:43:38.095Z,22.20
2022-08-08T18:47:45.149Z,22.00
2022-08-08T18:51:53.856Z,21.80
2022-08-08T18:55:56.281Z,21.70
2022-08-08T19:00:01.406Z,21.60
2022-08-08T19:04:10.891Z,21.30
2022-08-08T19:08:25.315Z,21.10
2022-08-08T19:12:30.333Z,21.00
2022-08-08T19:16:33.130Z,20.90
2022-08-08T19:20:36.634Z,20.60
2022-08-08T19:24:54.592Z,20.50
2022-08-08T19:29:04.228Z,20.30
2022-08-08T19:33:07.010Z,20.10
2022-08-08T19:37:15.996Z,19.90
2022-08-08T19:41:21.190Z,19.70
2022-08-08T19:45:59.629Z,19.60
2022-08-08T19:49:59.288Z,19.40
2022-08-08T19:54:02.105Z,19.30
2022-08-08T19:58:04.925Z,19.00
2022-08-08T20:02:10.535Z,18.90
2022-08-08T20:06:16.581Z,18.70
2022-08-08T20:10:18.572Z,18.60
2022-08-08T20:14:33.351Z,18.40
2022-08-08T20:18:52.526Z,18.30
2022-08-08T20:22:56.248Z,18.20
2022-08-08T20:26:58.194Z,18.00
2022-08-08T20:31:00.883Z,17.80
2022-08-08T20:35:03.672Z,17.70
2022-08-08T20:39:06.262Z,17.60
2022-08-08T20:43:16.503Z,17.40
2022-08-08T20:47:25.374Z,17.30
2022-08-08T20:51:32.593Z,17.10
2022-08-08T20:55:36.010Z,17.00
2022-08-08T20:59:44.199Z,17.00
2022-08-08T21:03:59.846Z,16.90
2022-08-08T21:08:36.462Z,16.90
2022-08-08T21:12:33.077Z,16.90
2022-08-08T21:16:35.279Z,16.80
2022-08-08T21:20:37.820Z,16.60
2022-08-08T21:24:39.612Z,16.60
2022-08-08T21:28:46.315Z,16.50
2022-08-08T21:32:52.506Z,16.40
2022-08-08T21:36:55.513Z,16.30
2022-08-08T21:41:00.266Z,16.20
2022-08-08T21:45:44.268Z,16.10
2022-08-08T21:49:24.443Z,16.00
2022-08-08T21:54:23.308Z,15.90
2022-08-08T21:58:05.715Z,15.90
2022-08-08T22:02:11.387Z,15.80
2022-08-08T22:06:14.564Z,15.70
2022-08-08T22:10:35.420Z,15.70
2022-08-08T22:14:38.224Z,15.60
2022-08-08T22:18:45.393Z,15.60
2022-08-08T22:22:52.459Z,15.50
2022-08-08T22:27:01.857Z,15.60
2022-08-08T22:31:04.726Z,15.50
2022-08-08T22:35:07.332Z,15.50
2022-08-08T22:39:18.799Z,15.40
2022-08-08T22:43:22.479Z,15.40
2022-08-08T22:47:24.450Z,15.50
2022-08-08T22:51:46.603Z,15.60
2022-08-08T22:55:58.195Z,15.60
2022-08-08T23:00:13.487Z,15.60
2022-08-08T23:04:15.233Z,15.70
2022-08-08T23:08:35.813Z,15.80
2022-08-08T23:12:46.459Z,15.80
2022-08-08T23:16:57.538Z,16.00
2022-08-08T23:21:04.414Z,16.20
2022-08-08T23:25:07.855Z,16.30
2022-08-08T23:29:11.126Z,16.50
2022-08-08T23:34:16.610Z,16.60
2022-08-08T23:38:02.014Z,16.70
2022-08-08T23:42:06.445Z,16.80
2022-08-08T23:49:04.181Z,16.80
2022-08-08T23:50:31.436Z,16.70
2022-08-08T23:54:43.848Z,16.80
2022-08-08T23:58:55.304Z,16.80
